createdAt,value
2023-03-02T00:00:53.596Z,99735.17
2023-03-02T00:04:08.340Z,99744.41
2023-03-02T00:07:24.859Z,99746.91
2023-03-02T00:10:40.264Z,99747.59
2023-03-02T00:14:06.513Z,99757.95
2023-03-02T00:17:18.534Z,99750.96
2023-03-02T00:20:41.522Z,99748.23
2023-03-02T00:23:54.556Z,99746.22
2023-03-02T00:27:09.109Z,99747.28
2023-03-02T00:30:22.765Z,99746.52
2023-03-02T00:33:34.658Z,99741.90
2023-03-02T00:36:48.636Z,99742.53
2023-03-02T00:40:01.006Z,99745.07
2023-03-02T00:43:12.997Z,99740.63
2023-03-02T00:46:28.655Z,99737.78
2023-03-02T00:49:40.921Z,99735.13
2023-03-02T00:52:52.813Z,99729.90
2023-03-02T00:56:05.185Z,99722.78
2023-03-02T00:59:21.652Z,99723.59
2023-03-02T01:02:33.903Z,99735.91
2023-03-02T01:05:46.135Z,99730.73
2023-03-02T01:08:57.978Z,99725.56
2023-03-02T01:12:11.509Z,99729.39
2023-03-02T01:15:23.937Z,99726.25
2023-03-02T01:18:38.240Z,99728.14
2023-03-02T01:21:50.937Z,99725.53
2023-03-02T01:25:04.010Z,99724.63
2023-03-02T01:28:15.932Z,99716.93
2023-03-02T01:31:30.530Z,99717.79
2023-03-02T01:34:42.733Z,99711.73
2023-03-02T01:37:54.640Z,99711.83
2023-03-02T01:41:06.554Z,99721.53
2023-03-02T01:44:45.050Z,99716.27
2023-03-02T01:47:57.082Z,99707.71
2023-03-02T01:51:13.140Z,99705.38
2023-03-02T01:54:28.916Z,99695.03
2023-03-02T01:57:47.503Z,99692.43
2023-03-02T02:01:00.953Z,99681.36
2023-03-02T02:04:14.250Z,99683.97
2023-03-02T02:07:27.955Z,99676.22
2023-03-02T02:10:42.564Z,99677.95
2023-03-02T02:13:54.959Z,99671.78
2023-03-02T02:17:06.953Z,99674.44
2023-03-02T02:20:28.130Z,99677.09
2023-03-02T02:23:47.110Z,99671.88
2023-03-02T02:27:03.481Z,99665.92
2023-03-02T02:30:21.432Z,99665.22
2023-03-02T02:33:34.368Z,99665.33
2023-03-02T02:36:51.293Z,99655.90
2023-03-02T02:40:05.871Z,99663.80
2023-03-02T02:43:22.156Z,99659.52
2023-03-02T02:46:35.002Z,99664.81
2023-03-02T02:49:48.323Z,99659.72
2023-03-02T02:53:05.473Z,99660.53
2023-03-02T02:56:19.560Z,99655.38
2023-03-02T02:59:36.192Z,99652.84
2023-03-02T03:02:52.154Z,99650.20
2023-03-02T03:06:07.832Z,99633.73
2023-03-02T03:09:20.055Z,99638.98
2023-03-02T03:12:35.379Z,99635.56
2023-03-02T03:15:47.893Z,99632.82
2023-03-02T03:19:02.806Z,99629.39
2023-03-02T03:22:16.419Z,99627.67
2023-03-02T03:25:34.821Z,99631.03
2023-03-02T03:28:47.112Z,99624.09
2023-03-02T03:32:01.607Z,99627.77
2023-03-02T03:35:16.230Z,99624.37
2023-03-02T03:38:28.298Z,99622.78
2023-03-02T03:41:40.796Z,99615.96
2023-03-02T03:44:53.062Z,99610.86
2023-03-02T03:48:06.532Z,99617.84
2023-03-02T03:51:19.202Z,99609.23
2023-03-02T03:54:31.517Z,99610.92
2023-03-02T03:57:46.968Z,99616.20
2023-03-02T04:00:59.677Z,99614.53
2023-03-02T04:04:15.103Z,99614.64
2023-03-02T04:07:27.352Z,99617.22
2023-03-02T04:10:39.775Z,99617.07
2023-03-02T04:13:52.661Z,99612.90
2023-03-02T04:17:05.554Z,99611.22
2023-03-02T04:20:22.128Z,99605.16
2023-03-02T04:23:36.068Z,99607.66
2023-03-02T04:26:50.729Z,99611.16
2023-03-02T04:30:02.861Z,99605.30
2023-03-02T04:33:17.239Z,99605.36
2023-03-02T04:36:32.846Z,99605.50
2023-03-02T04:39:49.676Z,99605.70
2023-03-02T04:43:05.728Z,99604.88
2023-03-02T04:46:44.793Z,99607.48
2023-03-02T04:50:05.936Z,99596.18
2023-03-02T04:53:19.677Z,99599.69
2023-03-02T04:56:32.483Z,99604.02
2023-03-02T04:59:45.000Z,99602.23
2023-03-02T05:03:24.302Z,99607.43
2023-03-02T05:07:46.877Z,99605.60
2023-03-02T05:11:19.213Z,99609.83
2023-03-02T05:14:45.851Z,99613.25
2023-03-02T05:18:15.754Z,99616.61
2023-03-02T05:21:30.399Z,99615.70
2023-03-02T05:24:42.387Z,99621.04
2023-03-02T05:32:48.892Z,99619.26
2023-03-02T05:56:03.328Z,99617.37
2023-03-02T06:16:40.821Z,99611.96
2023-03-02T06:19:52.917Z,99615.20
2023-03-02T06:23:04.982Z,99614.52
2023-03-02T06:26:18.326Z,99612.25
2023-03-02T06:29:30.764Z,99607.60
2023-03-02T06:32:42.820Z,99603.81
2023-03-02T06:35:55.719Z,99601.84
2023-03-02T06:39:08.531Z,99605.48
2023-03-02T06:42:20.402Z,99602.34
2023-03-02T06:45:33.838Z,99603.48
2023-03-02T06:48:46.197Z,99611.22
2023-03-02T06:51:58.806Z,99616.88
2023-03-02T06:55:12.643Z,99615.15
2023-03-02T06:58:25.016Z,99613.98
2023-03-02T07:01:36.978Z,99618.23
2023-03-02T07:04:49.032Z,99616.76
2023-03-02T07:08:01.159Z,99605.63
2023-03-02T07:11:17.815Z,99609.94
2023-03-02T07:14:30.081Z,99609.21
2023-03-02T07:17:42.764Z,99611.78
2023-03-02T07:20:54.826Z,99612.17
2023-03-02T07:24:06.918Z,99612.00
2023-03-02T07:27:18.929Z,99604.13
2023-03-02T07:30:31.165Z,99600.48
2023-03-02T07:33:44.113Z,99594.09
2023-03-02T07:36:56.676Z,99584.48
2023-03-02T07:40:09.978Z,99586.19
2023-03-02T07:43:24.076Z,99587.16
2023-03-02T07:46:36.029Z,99585.38
2023-03-02T07:49:48.312Z,99583.06
2023-03-02T07:53:00.361Z,99586.19
2023-03-02T07:56:17.267Z,99588.38
2023-03-02T07:59:29.426Z,99589.69
2023-03-02T08:02:41.784Z,99594.09
2023-03-02T08:05:56.785Z,99583.34
2023-03-02T08:09:11.515Z,99583.59
2023-03-02T08:12:23.408Z,99585.67
2023-03-02T08:15:35.496Z,99578.39
2023-03-02T08:18:48.519Z,99582.42
2023-03-02T08:22:00.872Z,99582.05
2023-03-02T08:25:14.826Z,99582.80
2023-03-02T08:28:27.652Z,99584.75
2023-03-02T08:31:40.070Z,99578.00
2023-03-02T08:34:52.937Z,99569.51
2023-03-02T08:38:05.026Z,99569.55
2023-03-02T08:41:21.250Z,99559.59
2023-03-02T08:44:33.301Z,99549.09
2023-03-02T08:47:45.412Z,99552.67
2023-03-02T08:51:08.660Z,99556.87
2023-03-02T08:54:20.660Z,99547.89
2023-03-02T08:57:34.841Z,99543.23
2023-03-02T09:00:47.044Z,99538.84
2023-03-02T09:04:00.711Z,99533.54
2023-03-02T09:07:16.533Z,99533.69
2023-03-02T09:10:28.671Z,99525.45
2023-03-02T09:13:41.369Z,99523.05
2023-03-02T09:16:53.820Z,99518.78
2023-03-02T09:20:05.947Z,99520.23
2023-03-02T09:23:17.921Z,99516.39
2023-03-02T09:26:30.688Z,99510.24
2023-03-02T09:29:42.759Z,99506.57
2023-03-02T09:32:54.950Z,99503.03
2023-03-02T09:36:11.581Z,99508.08
2023-03-02T09:39:23.697Z,99498.22
2023-03-02T09:42:49.610Z,99506.57
2023-03-02T09:46:13.023Z,99503.09
2023-03-02T09:49:32.139Z,99505.20
2023-03-02T09:52:50.099Z,99501.45
2023-03-02T09:56:05.651Z,99492.84
2023-03-02T09:59:27.431Z,99488.30
2023-03-02T10:02:45.217Z,99486.11
2023-03-02T10:05:59.253Z,99490.63
2023-03-02T10:09:12.636Z,99476.05
2023-03-02T10:12:49.224Z,99480.08
2023-03-02T10:16:16.654Z,99482.52
2023-03-02T10:19:31.556Z,99470.66
2023-03-02T10:22:49.002Z,99475.06
2023-03-02T10:26:08.115Z,99476.64
2023-03-02T10:29:34.364Z,99478.92
2023-03-02T10:32:51.097Z,99473.72
2023-03-02T10:36:03.139Z,99469.17
2023-03-02T10:39:21.389Z,99467.78
2023-03-02T10:42:40.258Z,99454.19
2023-03-02T10:45:54.717Z,99449.08
2023-03-02T10:49:06.818Z,99440.08
2023-03-02T10:52:23.280Z,99436.65
2023-03-02T10:55:35.736Z,99430.41
2023-03-02T10:58:47.690Z,99434.27
2023-03-02T11:02:08.290Z,99417.75
2023-03-02T11:05:33.862Z,99421.77
2023-03-02T11:08:45.856Z,99416.20
2023-03-02T11:12:02.370Z,99415.11
2023-03-02T11:15:33.242Z,99399.70
2023-03-02T11:18:51.401Z,99393.88
2023-03-02T11:22:10.065Z,99393.72
2023-03-02T11:25:28.057Z,99389.72
2023-03-02T11:28:51.687Z,99381.42
2023-03-02T11:32:10.487Z,99377.40
2023-03-02T11:35:29.317Z,99366.30
2023-03-02T11:38:47.461Z,99363.50
2023-03-02T11:41:59.537Z,99366.31
2023-03-02T11:45:23.762Z,99366.30
2023-03-02T11:48:40.785Z,99359.31
2023-03-02T11:51:58.432Z,99352.14
2023-03-02T11:55:20.503Z,99350.33
2023-03-02T11:58:35.649Z,99350.73
2023-03-02T12:01:48.380Z,99345.25
2023-03-02T12:05:14.345Z,99348.22
2023-03-02T12:08:43.813Z,99342.59
2023-03-02T12:12:02.109Z,99336.17
2023-03-02T12:15:43.713Z,99334.75
2023-03-02T12:18:56.755Z,99326.22
2023-03-02T12:22:13.495Z,99321.73
2023-03-02T12:25:48.161Z,99327.47
2023-03-02T12:29:09.338Z,99319.19
2023-03-02T12:32:31.399Z,99313.05
2023-03-02T12:35:44.346Z,99317.78
2023-03-02T12:39:11.553Z,99303.51
2023-03-02T12:42:41.800Z,99307.72
2023-03-02T12:46:10.824Z,99303.66
2023-03-02T12:49:50.158Z,99297.19
2023-03-02T12:53:11.585Z,99293.41
2023-03-02T12:56:31.452Z,99293.82
2023-03-02T12:59:43.669Z,99298.35
2023-03-02T13:02:58.477Z,99292.75
2023-03-02T13:06:20.438Z,99281.36
2023-03-02T13:09:32.841Z,99281.02
2023-03-02T13:12:50.016Z,99280.16
2023-03-02T13:16:05.088Z,99277.02
2023-03-02T13:19:22.261Z,99274.28
2023-03-02T13:22:35.233Z,99271.80
2023-03-02T13:25:56.323Z,99257.27
2023-03-02T13:29:23.144Z,99248.77
2023-03-02T13:32:44.947Z,99242.96
2023-03-02T13:35:57.333Z,99247.21
2023-03-02T13:39:12.182Z,99246.28
2023-03-02T13:42:36.670Z,99241.16
2023-03-02T13:45:58.205Z,99246.11
2023-03-02T13:49:12.833Z,99230.38
2023-03-02T13:52:32.482Z,99228.75
2023-03-02T13:55:45.690Z,99213.63
2023-03-02T13:58:57.745Z,99226.38
2023-03-02T14:02:13.595Z,99222.20
2023-03-02T14:05:30.938Z,99217.09
2023-03-02T14:08:43.089Z,99210.27
2023-03-02T14:11:59.666Z,99203.92
2023-03-02T14:15:17.247Z,99204.77
2023-03-02T14:18:42.064Z,99206.42
2023-03-02T14:21:54.385Z,99202.00
2023-03-02T14:25:06.358Z,99199.88
2023-03-02T14:28:20.801Z,99202.24
2023-03-02T14:31:33.556Z,99199.88
2023-03-02T14:34:46.601Z,99199.88
2023-03-02T14:37:58.896Z,99206.02
2023-03-02T14:41:11.498Z,99195.84
2023-03-02T14:44:23.688Z,99195.27
2023-03-02T14:47:35.670Z,99197.25
2023-03-02T14:50:51.543Z,99198.36
2023-03-02T14:54:07.851Z,99195.53
2023-03-02T14:57:26.231Z,99198.70
2023-03-02T15:00:38.602Z,99201.00
2023-03-02T15:03:50.511Z,99199.81
2023-03-02T15:07:02.553Z,99191.38
2023-03-02T15:10:19.289Z,99195.13
2023-03-02T15:13:31.459Z,99195.49
2023-03-02T15:16:44.176Z,99192.00
2023-03-02T15:19:57.572Z,99200.51
2023-03-02T15:23:10.139Z,99196.20
2023-03-02T15:26:22.889Z,99196.84
2023-03-02T15:29:35.465Z,99197.66
2023-03-02T15:32:47.893Z,99201.41
2023-03-02T15:36:06.330Z,99195.46
2023-03-02T15:39:21.237Z,99197.96
2023-03-02T15:42:33.611Z,99190.01
2023-03-02T15:45:54.644Z,99193.47
2023-03-02T15:49:07.187Z,99197.66
2023-03-02T15:52:20.972Z,99194.75
2023-03-02T15:55:36.078Z,99203.33
2023-03-02T15:58:53.672Z,99204.47
2023-03-02T16:02:06.594Z,99191.18
2023-03-02T16:08:18.990Z,99192.44
2023-03-02T16:11:31.035Z,99199.21
2023-03-02T16:14:43.046Z,99200.61
2023-03-02T16:17:55.389Z,99194.91
2023-03-02T16:21:07.835Z,99200.31
2023-03-02T16:24:20.228Z,99204.58
2023-03-02T16:27:32.454Z,99202.78
2023-03-02T16:30:45.890Z,99209.41
2023-03-02T16:33:59.124Z,99208.77
2023-03-02T16:37:14.236Z,99211.07
2023-03-02T16:40:29.900Z,99213.38
2023-03-02T16:43:42.119Z,99220.92
2023-03-02T16:46:57.003Z,99220.62
2023-03-02T16:50:09.436Z,99218.58
2023-03-02T16:53:21.971Z,99226.59
2023-03-02T16:56:34.548Z,99227.84
2023-03-02T16:59:46.777Z,99221.88
2023-03-02T17:02:59.510Z,99233.39
2023-03-02T17:06:13.801Z,99229.72
2023-03-02T17:09:25.824Z,99237.91
2023-03-02T17:12:37.722Z,99236.63
2023-03-02T17:15:50.326Z,99238.05
2023-03-02T17:19:02.744Z,99242.88
2023-03-02T17:22:15.111Z,99237.05
2023-03-02T17:25:28.148Z,99239.67
2023-03-02T17:28:40.478Z,99244.39
2023-03-02T17:31:52.570Z,99247.59
2023-03-02T17:35:07.517Z,99245.16
2023-03-02T17:38:20.347Z,99249.67
2023-03-02T17:41:35.053Z,99242.16
2023-03-02T17:44:48.326Z,99244.21
2023-03-02T17:48:05.479Z,99247.42
2023-03-02T17:51:20.510Z,99244.41
2023-03-02T17:54:32.945Z,99239.63
2023-03-02T17:57:46.484Z,99236.90
2023-03-02T18:00:58.736Z,99237.47
2023-03-02T18:04:11.181Z,99239.72
2023-03-02T18:07:23.608Z,99240.08
2023-03-02T18:10:35.797Z,99238.08
2023-03-02T18:13:47.910Z,99235.16
2023-03-02T18:17:00.400Z,99237.49
2023-03-02T18:20:14.789Z,99242.81
2023-03-02T18:23:27.151Z,99244.67
2023-03-02T18:26:39.539Z,99254.17
2023-03-02T18:29:51.761Z,99253.88
2023-03-02T18:33:03.782Z,99253.80
2023-03-02T18:36:16.873Z,99258.63
2023-03-02T18:39:28.899Z,99257.63
2023-03-02T18:42:41.190Z,99262.02
2023-03-02T18:45:53.171Z,99249.81
2023-03-02T18:49:05.891Z,99256.59
2023-03-02T18:52:18.505Z,99258.45
2023-03-02T18:55:31.571Z,99256.25
2023-03-02T18:58:43.935Z,99259.64
2023-03-02T19:01:56.177Z,99257.69
2023-03-02T19:05:08.867Z,99266.41
2023-03-02T19:08:22.889Z,99261.50
2023-03-02T19:11:35.073Z,99270.31
2023-03-02T19:14:47.269Z,99261.16
2023-03-02T19:17:59.438Z,99266.06
2023-03-02T19:21:12.759Z,99265.88
2023-03-02T19:24:24.861Z,99263.34
2023-03-02T19:27:37.846Z,99265.88
2023-03-02T19:30:50.032Z,99267.73
2023-03-02T19:34:04.171Z,99269.68
2023-03-02T19:37:18.616Z,99270.69
2023-03-02T19:40:34.600Z,99270.24
2023-03-02T19:43:47.183Z,99266.86
2023-03-02T19:46:59.825Z,99263.32
2023-03-02T19:59:14.076Z,99271.16
2023-03-02T20:02:28.029Z,99276.63
2023-03-02T20:05:41.277Z,99275.09
2023-03-02T20:08:56.140Z,99278.03
2023-03-02T20:12:18.482Z,99272.96
2023-03-02T20:15:32.396Z,99274.50
2023-03-02T20:18:45.696Z,99275.41
2023-03-02T20:22:02.737Z,99267.63
2023-03-02T20:29:06.289Z,99276.44
2023-03-02T20:32:20.369Z,99266.58
2023-03-02T20:39:02.647Z,99265.95
2023-03-02T20:42:16.149Z,99264.19
2023-03-02T20:45:28.472Z,99268.66
2023-03-02T20:48:41.610Z,99262.81
2023-03-02T20:51:57.357Z,99263.03
2023-03-02T20:55:10.538Z,99253.55
2023-03-02T20:58:22.640Z,99252.95
2023-03-02T21:01:34.910Z,99246.16
2023-03-02T21:04:47.923Z,99256.00
2023-03-02T21:08:00.298Z,99255.89
2023-03-02T21:11:15.652Z,99260.11
2023-03-02T21:14:27.973Z,99256.84
2023-03-02T21:17:41.521Z,99254.23
2023-03-02T21:20:56.121Z,99242.70
2023-03-02T21:24:09.179Z,99237.64
2023-03-02T21:27:21.459Z,99251.63
2023-03-02T21:30:38.202Z,99238.91
2023-03-02T21:33:51.839Z,99240.75
2023-03-02T21:37:04.883Z,99238.80
2023-03-02T21:40:24.944Z,99238.42
2023-03-02T21:43:37.473Z,99239.12
2023-03-02T21:46:51.509Z,99232.83
2023-03-02T21:50:09.649Z,99233.77
2023-03-02T21:53:22.619Z,99227.59
2023-03-02T21:56:36.601Z,99239.90
2023-03-02T21:59:51.347Z,99229.64
2023-03-02T22:03:04.892Z,99229.88
2023-03-02T22:06:23.244Z,99228.17
2023-03-02T22:09:41.109Z,99228.54
2023-03-02T22:12:54.682Z,99218.16
2023-03-02T22:16:17.890Z,99220.86
2023-03-02T22:19:36.073Z,99211.46
2023-03-02T22:22:48.564Z,99207.22
2023-03-02T22:26:05.985Z,99203.67
2023-03-02T22:29:24.911Z,99204.73
2023-03-02T22:32:40.611Z,99201.58
2023-03-02T22:35:53.391Z,99203.53
2023-03-02T22:39:14.382Z,99195.57
2023-03-02T22:42:31.198Z,99196.70
2023-03-02T22:46:01.317Z,99198.67
2023-03-02T22:49:21.991Z,99197.19
2023-03-02T22:52:46.872Z,99199.92
2023-03-02T23:11:25.212Z,99191.20
2023-03-02T23:14:46.015Z,99187.88
2023-03-02T23:36:33.254Z,99175.78
